createdAt,value
2019-01-02T00:00:39.325Z,5.14
2019-01-02T00:03:12.266Z,5.16
2019-01-02T00:05:44.314Z,5.14
2019-01-02T00:08:15.822Z,5.15
2019-01-02T00:10:47.206Z,5.13
2019-01-02T00:13:18.633Z,5.11
2019-01-02T00:15:50.009Z,5.12
2019-01-02T00:18:22.643Z,5.15
2019-01-02T00:20:54.167Z,5.10
2019-01-02T00:23:25.848Z,5.07
2019-01-02T00:25:57.355Z,5.06
2019-01-02T00:28:28.751Z,4.97
2019-01-02T00:31:00.197Z,4.89
2019-01-02T00:33:31.846Z,4.84
2019-01-02T00:36:04.093Z,4.81
2019-01-02T00:38:35.440Z,4.72
2019-01-02T00:41:07.175Z,4.60
2019-01-02T00:43:39.018Z,4.65
2019-01-02T00:46:10.800Z,4.58
2019-01-02T00:48:42.398Z,4.65
2019-01-02T00:51:13.796Z,4.58
2019-01-02T00:53:45.306Z,4.61
2019-01-02T00:56:17.026Z,4.59
2019-01-02T00:58:48.620Z,4.61
2019-01-02T01:01:20.032Z,4.69
2019-01-02T01:03:51.891Z,4.76
2019-01-02T01:06:23.655Z,4.77
2019-01-02T01:08:55.046Z,4.84
2019-01-02T01:11:26.544Z,4.96
2019-01-02T01:13:58.455Z,5.04
2019-01-02T01:16:29.862Z,5.04
2019-01-02T01:19:01.563Z,5.08
2019-01-02T01:21:32.968Z,5.08
2019-01-02T01:24:05.584Z,5.12
2019-01-02T01:26:38.007Z,5.16
2019-01-02T01:29:09.532Z,5.11
2019-01-02T01:31:41.315Z,5.14
2019-01-02T01:34:12.714Z,5.14
2019-01-02T01:36:44.088Z,5.11
2019-01-02T01:39:15.649Z,5.07
2019-01-02T01:41:47.153Z,5.02
2019-01-02T01:44:18.519Z,5.04
2019-01-02T01:46:49.930Z,5.02
2019-01-02T01:49:21.331Z,4.95
2019-01-02T01:51:53.303Z,4.96
2019-01-02T01:54:24.740Z,4.85
2019-01-02T01:56:56.175Z,4.76
2019-01-02T01:59:27.935Z,4.68
2019-01-02T02:01:59.686Z,4.64
2019-01-02T02:04:31.047Z,4.58
2019-01-02T02:07:02.880Z,4.51
2019-01-02T02:09:34.653Z,4.51
2019-01-02T02:12:06.203Z,4.53
2019-01-02T02:14:38.845Z,4.47
2019-01-02T02:17:10.355Z,4.42
2019-01-02T02:19:41.846Z,4.40
2019-01-02T02:22:13.501Z,4.40
2019-01-02T02:24:45.970Z,4.43
2019-01-02T02:27:17.755Z,4.43
2019-01-02T02:29:49.161Z,4.42
2019-01-02T02:32:20.559Z,4.41
2019-01-02T02:34:51.948Z,4.41
2019-01-02T02:37:23.355Z,4.38
2019-01-02T02:39:54.747Z,4.35
2019-01-02T02:42:26.156Z,4.33
2019-01-02T02:44:57.962Z,4.33
2019-01-02T02:47:29.749Z,4.35
2019-01-02T02:50:01.476Z,4.33
2019-01-02T02:52:32.880Z,4.39
2019-01-02T02:55:04.302Z,4.39
2019-01-02T02:57:35.671Z,4.48
2019-01-02T03:00:10.965Z,4.55
2019-01-02T03:02:42.539Z,4.63
2019-01-02T03:05:15.192Z,4.10
2019-01-02T03:07:47.092Z,3.72
2019-01-02T03:10:18.819Z,3.49
2019-01-02T03:12:51.162Z,3.37
2019-01-02T03:15:22.852Z,3.37
2019-01-02T03:17:54.247Z,3.37
2019-01-02T03:20:25.655Z,3.35
2019-01-02T03:22:57.080Z,3.38
2019-01-02T03:25:28.748Z,3.41
2019-01-02T03:28:00.720Z,3.40
2019-01-02T03:30:32.500Z,3.39
2019-01-02T03:33:04.631Z,3.43
2019-01-02T03:35:35.987Z,3.46
2019-01-02T03:38:07.405Z,3.46
2019-01-02T03:40:39.067Z,3.47
2019-01-02T03:43:10.828Z,3.49
2019-01-02T03:45:42.306Z,3.44
2019-01-02T03:48:13.782Z,3.51
2019-01-02T03:50:45.228Z,3.53
2019-01-02T03:53:16.615Z,3.45
2019-01-02T03:55:48.168Z,3.34
2019-01-02T03:58:19.616Z,3.35
2019-01-02T04:00:51.017Z,3.31
2019-01-02T04:03:22.439Z,3.27
2019-01-02T04:05:54.921Z,3.24
2019-01-02T04:08:27.228Z,3.24
2019-01-02T04:10:58.713Z,3.25
2019-01-02T04:13:30.106Z,3.23
2019-01-02T04:16:01.472Z,3.19
2019-01-02T04:18:32.870Z,3.22
2019-01-02T04:21:06.248Z,3.25
2019-01-02T04:23:37.625Z,3.28
2019-01-02T04:26:09.006Z,3.31
2019-01-02T04:28:40.519Z,3.32
2019-01-02T04:31:12.184Z,3.34
2019-01-02T04:33:43.631Z,3.33
2019-01-02T04:36:15.802Z,3.35
2019-01-02T04:38:47.352Z,3.35
2019-01-02T04:41:18.853Z,3.34
2019-01-02T04:43:50.251Z,3.32
2019-01-02T04:46:21.654Z,3.31
2019-01-02T04:48:53.048Z,3.28
2019-01-02T04:51:24.443Z,3.27
2019-01-02T04:53:55.856Z,3.32
2019-01-02T04:56:27.238Z,3.32
2019-01-02T04:58:59.560Z,3.30
2019-01-02T05:01:30.968Z,3.32
2019-01-02T05:04:02.522Z,3.30
2019-01-02T05:06:33.864Z,3.29
2019-01-02T05:09:07.096Z,3.30
2019-01-02T05:11:39.428Z,3.21
2019-01-02T05:14:10.943Z,3.23
2019-01-02T05:16:42.367Z,3.21
2019-01-02T05:19:13.782Z,3.19
2019-01-02T05:21:45.582Z,3.14
2019-01-02T05:24:17.268Z,3.10
2019-01-02T05:26:48.799Z,3.05
2019-01-02T05:29:20.580Z,3.04
2019-01-02T05:31:52.042Z,2.93
2019-01-02T05:34:23.490Z,2.88
2019-01-02T05:36:55.242Z,2.81
2019-01-02T05:39:26.786Z,2.75
2019-01-02T05:42:00.623Z,2.74
2019-01-02T05:44:32.039Z,2.70
2019-01-02T05:47:03.803Z,2.76
2019-01-02T05:49:35.250Z,2.72
2019-01-02T05:52:06.972Z,2.60
2019-01-02T05:54:38.353Z,2.55
2019-01-02T05:57:10.028Z,2.55
2019-01-02T05:59:41.833Z,2.57
2019-01-02T06:02:13.539Z,2.54
2019-01-02T06:04:45.654Z,2.50
2019-01-02T06:07:17.195Z,2.45
2019-01-02T06:09:48.638Z,2.47
2019-01-02T06:12:20.374Z,2.43
2019-01-02T06:14:52.045Z,2.50
2019-01-02T06:17:23.488Z,2.53
2019-01-02T06:19:55.257Z,2.48
2019-01-02T06:22:26.659Z,2.51
2019-01-02T06:25:00.820Z,2.46
2019-01-02T06:27:32.183Z,2.42
2019-01-02T06:30:03.599Z,2.34
2019-01-02T06:32:35.003Z,2.34
2019-01-02T06:35:06.888Z,2.31
2019-01-02T06:37:38.306Z,2.30
2019-01-02T06:40:11.913Z,2.30
2019-01-02T06:42:43.319Z,2.23
2019-01-02T06:45:16.831Z,2.24
2019-01-02T06:47:48.836Z,2.20
2019-01-02T06:50:23.105Z,2.20
2019-01-02T06:52:54.851Z,2.14
2019-01-02T06:55:26.254Z,2.04
2019-01-02T06:57:57.953Z,1.98
2019-01-02T07:00:34.790Z,1.88
2019-01-02T07:03:06.155Z,1.79
2019-01-02T07:05:37.604Z,1.65
2019-01-02T07:08:09.289Z,1.39
2019-01-02T07:10:40.762Z,1.34
2019-01-02T07:13:12.689Z,1.36
2019-01-02T07:15:44.298Z,1.23
2019-01-02T07:18:15.980Z,1.08
2019-01-02T07:20:47.555Z,0.91
2019-01-02T07:23:19.294Z,0.77
2019-01-02T07:25:51.097Z,0.67
2019-01-02T07:28:22.507Z,0.63
2019-01-02T07:30:53.969Z,0.57
2019-01-02T07:33:38.271Z,0.57
2019-01-02T07:36:56.804Z,0.63
2019-01-02T07:40:14.677Z,0.81
2019-01-02T07:43:51.544Z,0.87
2019-01-02T07:46:58.616Z,0.99
2019-01-02T07:50:10.821Z,1.04
2019-01-02T07:53:31.958Z,1.14
2019-01-02T07:56:37.036Z,1.16
2019-01-02T07:59:39.804Z,1.25
2019-01-02T08:02:48.037Z,1.36
2019-01-02T08:05:42.976Z,1.50
2019-01-02T08:08:45.782Z,1.59
2019-01-02T08:11:48.436Z,1.59
2019-01-02T08:15:02.874Z,1.56
2019-01-02T08:17:54.127Z,1.63
2019-01-02T08:21:19.186Z,1.86
2019-01-02T08:24:44.554Z,2.08
2019-01-02T08:27:51.388Z,2.32
2019-01-02T08:31:11.381Z,2.46
2019-01-02T08:34:35.185Z,2.60
2019-01-02T08:37:38.886Z,2.78
2019-01-02T08:40:54.172Z,3.00
2019-01-02T08:44:11.650Z,3.20
2019-01-02T08:47:22.153Z,3.40
2019-01-02T08:50:22.766Z,3.56
2019-01-02T08:53:25.129Z,3.69
2019-01-02T08:56:30.371Z,3.73
2019-01-02T08:59:48.046Z,3.83
2019-01-02T09:03:02.184Z,3.89
2019-01-02T09:05:58.541Z,3.92
2019-01-02T09:09:11.002Z,3.89
2019-01-02T09:12:29.418Z,3.94
2019-01-02T09:16:09.443Z,4.06
2019-01-02T09:19:01.435Z,4.23
2019-01-02T09:22:20.318Z,4.31
2019-01-02T09:25:35.993Z,4.31
2019-01-02T09:28:47.133Z,4.27
2019-01-02T09:31:48.762Z,4.29
2019-01-02T09:34:59.642Z,4.21
2019-01-02T09:37:52.378Z,4.21
2019-01-02T09:41:19.808Z,4.28
2019-01-02T09:44:23.959Z,4.38
2019-01-02T09:47:41.192Z,4.49
2019-01-02T09:50:37.701Z,4.58
2019-01-02T09:53:47.030Z,4.69
2019-01-02T09:56:47.065Z,4.70
2019-01-02T10:00:01.660Z,4.84
2019-01-02T10:03:11.962Z,4.87
2019-01-02T10:06:26.347Z,4.94
2019-01-02T10:09:41.583Z,5.06
2019-01-02T10:12:41.086Z,4.97
2019-01-02T10:15:45.660Z,5.02
2019-01-02T10:18:39.538Z,5.13
2019-01-02T10:21:44.079Z,5.17
2019-01-02T10:24:29.566Z,5.19
2019-01-02T10:27:47.881Z,5.24
2019-01-02T10:30:50.718Z,5.18
2019-01-02T10:33:59.374Z,5.29
2019-01-02T10:37:06.115Z,5.30
2019-01-02T10:40:04.964Z,5.41
2019-01-02T10:43:05.328Z,5.60
2019-01-02T10:46:27.733Z,5.75
2019-01-02T10:49:54.256Z,5.92
2019-01-02T10:53:06.514Z,6.12
2019-01-02T10:56:15.975Z,6.01
2019-01-02T10:59:24.275Z,5.95
2019-01-02T11:02:38.777Z,5.79
2019-01-02T11:06:01.017Z,5.87
2019-01-02T11:08:56.726Z,5.90
2019-01-02T11:12:20.925Z,6.06
2019-01-02T11:15:20.392Z,6.09
2019-01-02T11:18:07.418Z,6.05
2019-01-02T11:21:17.134Z,6.05
2019-01-02T11:24:25.479Z,6.01
2019-01-02T11:27:50.821Z,5.87
2019-01-02T11:31:12.690Z,5.95
2019-01-02T11:34:35.533Z,5.82
2019-01-02T11:37:31.686Z,5.93
2019-01-02T11:40:52.115Z,6.05
2019-01-02T11:44:21.206Z,6.26
2019-01-02T11:46:48.711Z,6.30
2019-01-02T11:49:20.480Z,6.25
2019-01-02T11:51:51.993Z,6.14
2019-01-02T11:54:23.463Z,6.25
2019-01-02T11:56:54.879Z,6.11
2019-01-02T11:59:26.476Z,5.89
2019-01-02T12:01:57.994Z,5.94
2019-01-02T12:04:29.407Z,5.90
2019-01-02T12:07:01.254Z,5.88
2019-01-02T12:09:32.703Z,5.74
2019-01-02T12:12:04.317Z,5.61
2019-01-02T12:14:35.739Z,5.41
2019-01-02T12:17:07.101Z,5.43
2019-01-02T12:19:38.630Z,5.43
2019-01-02T12:22:10.049Z,5.43
2019-01-02T12:24:41.475Z,5.55
2019-01-02T12:27:12.969Z,5.76
2019-01-02T12:29:44.452Z,6.01
2019-01-02T12:32:15.865Z,6.11
2019-01-02T12:34:47.309Z,6.05
2019-01-02T12:37:18.802Z,6.04
2019-01-02T12:39:50.173Z,5.95
2019-01-02T12:42:21.562Z,5.96
2019-01-02T12:44:52.987Z,6.08
2019-01-02T12:47:24.504Z,6.16
2019-01-02T12:49:55.879Z,6.32
2019-01-02T12:52:27.478Z,6.09
2019-01-02T12:54:58.925Z,5.97
2019-01-02T12:57:30.753Z,5.93
2019-01-02T13:00:02.128Z,6.17
2019-01-02T13:03:10.966Z,6.51
2019-01-02T13:06:26.488Z,6.87
2019-01-02T13:09:51.050Z,7.06
2019-01-02T13:12:51.065Z,7.12
2019-01-02T13:16:27.666Z,6.92
2019-01-02T13:19:40.195Z,6.94
2019-01-02T13:23:17.089Z,6.92
2019-01-02T13:26:03.862Z,7.32
2019-01-02T13:29:10.150Z,7.41
2019-01-02T13:32:43.899Z,7.62
2019-01-02T13:35:48.410Z,7.50
2019-01-02T13:38:35.584Z,7.31
2019-01-02T13:41:43.426Z,7.16
2019-01-02T13:44:47.420Z,7.15
2019-01-02T13:48:33.789Z,7.10
2019-01-02T13:51:12.251Z,7.20
2019-01-02T13:53:44.670Z,7.01
2019-01-02T13:56:19.377Z,7.22
2019-01-02T13:58:50.814Z,7.40
2019-01-02T14:01:22.262Z,7.55
2019-01-02T14:03:56.675Z,7.54
2019-01-02T14:06:28.094Z,7.51
2019-01-02T14:08:59.487Z,7.47
2019-01-02T14:11:30.899Z,7.29
2019-01-02T14:14:02.326Z,7.18
2019-01-02T14:16:34.819Z,7.24
2019-01-02T14:19:06.236Z,7.31
2019-01-02T14:21:37.661Z,7.09
2019-01-02T14:24:09.049Z,6.65
2019-01-02T14:26:40.489Z,6.40
2019-01-02T14:29:11.910Z,6.23
2019-01-02T14:31:43.255Z,6.20
2019-01-02T14:34:14.661Z,6.17
2019-01-02T14:36:46.117Z,6.15
2019-01-02T14:39:17.467Z,6.00
2019-01-02T14:41:48.936Z,5.87
2019-01-02T14:44:20.394Z,5.73
2019-01-02T14:46:52.075Z,5.64
2019-01-02T14:49:23.795Z,5.59
2019-01-02T14:51:55.653Z,5.48
2019-01-02T14:54:27.111Z,5.44
2019-01-02T14:56:58.561Z,5.34
2019-01-02T14:59:30.320Z,5.27
2019-01-02T15:02:01.698Z,5.29
2019-01-02T15:04:33.103Z,5.23
2019-01-02T15:07:04.495Z,5.19
2019-01-02T15:09:35.894Z,5.14
2019-01-02T15:12:07.303Z,5.08
2019-01-02T15:14:38.709Z,5.01
2019-01-02T15:17:10.099Z,4.93
2019-01-02T15:19:41.541Z,4.85
2019-01-02T15:22:12.891Z,4.77
2019-01-02T15:24:49.440Z,4.76
2019-01-02T15:27:17.448Z,4.73
2019-01-02T15:29:49.238Z,4.70
2019-01-02T15:32:20.933Z,4.69
2019-01-02T15:34:52.361Z,4.63
2019-01-02T15:37:23.775Z,4.60
2019-01-02T15:39:55.204Z,4.57
2019-01-02T15:42:26.550Z,4.53
2019-01-02T15:45:01.081Z,4.47
2019-01-02T15:47:32.419Z,4.40
2019-01-02T15:50:04.351Z,4.28
2019-01-02T15:52:35.897Z,4.24
2019-01-02T15:55:08.018Z,4.19
2019-01-02T15:57:39.357Z,4.03
2019-01-02T16:00:13.628Z,3.86
2019-01-02T16:02:45.028Z,3.66
2019-01-02T16:05:16.425Z,3.52
2019-01-02T16:07:48.075Z,3.43
2019-01-02T16:10:19.444Z,3.38
2019-01-02T16:12:50.840Z,3.36
2019-01-02T16:15:22.619Z,3.31
2019-01-02T16:17:54.411Z,3.33
2019-01-02T16:20:25.885Z,3.12
2019-01-02T16:22:57.761Z,2.88
2019-01-02T16:25:29.690Z,2.69
2019-01-02T16:28:01.274Z,2.54
2019-01-02T16:30:33.058Z,2.55
2019-01-02T16:33:04.595Z,2.76
2019-01-02T16:35:36.331Z,2.99
2019-01-02T16:38:07.720Z,3.02
2019-01-02T16:40:39.208Z,3.01
2019-01-02T16:43:11.035Z,2.94
2019-01-02T16:45:42.551Z,2.90
2019-01-02T16:48:14.918Z,2.92
2019-01-02T16:50:46.558Z,3.01
2019-01-02T16:53:17.903Z,3.17
2019-01-02T16:55:49.363Z,3.36
2019-01-02T16:58:20.857Z,3.43
2019-01-02T17:00:52.457Z,3.47
2019-01-02T17:03:24.357Z,3.51
2019-01-02T17:05:56.415Z,3.53
2019-01-02T17:08:28.086Z,3.49
2019-01-02T17:10:59.511Z,3.51
2019-01-02T17:13:30.913Z,3.53
2019-01-02T17:16:02.698Z,3.49
2019-01-02T17:18:34.093Z,3.45
2019-01-02T17:21:05.640Z,3.40
2019-01-02T17:23:39.111Z,3.32
2019-01-02T17:26:10.898Z,3.28
2019-01-02T17:28:45.192Z,3.24
2019-01-02T17:31:16.989Z,3.20
2019-01-02T17:33:48.435Z,3.19
2019-01-02T17:36:19.922Z,3.18
2019-01-02T17:38:51.665Z,3.23
2019-01-02T17:41:34.417Z,3.25
2019-01-02T17:44:05.849Z,3.26
2019-01-02T17:46:37.457Z,3.25
2019-01-02T17:49:10.016Z,3.26
2019-01-02T17:51:41.681Z,3.28
2019-01-02T17:54:14.031Z,3.30
2019-01-02T17:56:45.675Z,3.37
2019-01-02T17:59:17.498Z,3.36
2019-01-02T18:01:49.178Z,3.38
2019-01-02T18:04:20.603Z,3.37
2019-01-02T18:06:52.207Z,3.34
2019-01-02T18:09:24.182Z,3.36
2019-01-02T18:11:55.951Z,3.39
2019-01-02T18:14:27.417Z,3.38
2019-01-02T18:16:58.866Z,3.38
2019-01-02T18:19:30.670Z,3.34
2019-01-02T18:22:02.320Z,3.34
2019-01-02T18:24:33.844Z,3.35
2019-01-02T18:27:05.571Z,3.33
2019-01-02T18:29:36.983Z,3.31
2019-01-02T18:32:09.187Z,3.28
2019-01-02T18:34:40.606Z,3.37
2019-01-02T18:37:12.498Z,3.38
2019-01-02T18:39:43.965Z,3.34
2019-01-02T18:42:15.616Z,3.28
2019-01-02T18:44:47.287Z,3.22
2019-01-02T18:47:19.223Z,3.15
2019-01-02T18:49:50.734Z,3.09
2019-01-02T18:52:22.364Z,3.01
2019-01-02T18:54:54.222Z,2.90
2019-01-02T18:57:25.783Z,2.85
2019-01-02T18:59:57.348Z,2.75
2019-01-02T19:02:28.748Z,2.73
2019-01-02T19:05:00.596Z,2.60
2019-01-02T19:07:33.531Z,2.58
2019-01-02T19:10:05.265Z,2.49
2019-01-02T19:12:36.638Z,2.44
2019-01-02T19:15:09.302Z,2.40
2019-01-02T19:17:41.048Z,2.38
2019-01-02T19:20:12.641Z,2.40
2019-01-02T19:22:44.059Z,2.37
2019-01-02T19:25:15.537Z,2.25
2019-01-02T19:27:47.432Z,2.13
2019-01-02T19:30:18.799Z,2.10
2019-01-02T19:32:51.868Z,2.15
2019-01-02T19:35:23.268Z,2.25
2019-01-02T19:37:54.759Z,2.40
2019-01-02T19:40:26.209Z,2.50
2019-01-02T19:42:58.354Z,2.60
2019-01-02T19:45:31.509Z,2.73
2019-01-02T19:48:03.080Z,2.90
2019-01-02T19:50:35.003Z,2.97
2019-01-02T19:53:06.376Z,3.05
2019-01-02T19:55:38.726Z,3.01
2019-01-02T19:58:10.272Z,2.92
2019-01-02T20:00:41.722Z,2.70
2019-01-02T20:03:13.065Z,2.47
2019-01-02T20:05:44.679Z,2.20
2019-01-02T20:08:16.599Z,1.90
2019-01-02T20:10:47.929Z,1.76
2019-01-02T20:13:19.652Z,1.64
2019-01-02T20:15:51.452Z,1.50
2019-01-02T20:18:22.799Z,1.35
2019-01-02T20:20:54.454Z,1.19
2019-01-02T20:23:25.816Z,1.12
2019-01-02T20:25:57.479Z,1.06
2019-01-02T20:28:29.160Z,0.86
2019-01-02T20:31:01.575Z,0.73
2019-01-02T20:33:33.074Z,0.59
2019-01-02T20:36:04.476Z,0.55
2019-01-02T20:38:35.931Z,0.62
2019-01-02T20:41:07.357Z,0.64
2019-01-02T20:43:38.883Z,0.67
2019-01-02T20:46:11.763Z,0.73
2019-01-02T20:48:43.183Z,0.58
2019-01-02T20:51:14.657Z,0.52
2019-01-02T20:53:46.168Z,0.45
2019-01-02T20:56:18.103Z,0.33
2019-01-02T20:58:49.629Z,0.21
2019-01-02T21:01:21.082Z,0.22
2019-01-02T21:03:52.519Z,0.27
2019-01-02T21:06:23.956Z,0.37
2019-01-02T21:08:55.349Z,0.55
2019-01-02T21:11:26.883Z,0.76
2019-01-02T21:13:58.325Z,0.97
2019-01-02T21:16:29.760Z,1.11
2019-01-02T21:19:01.108Z,1.22
2019-01-02T21:21:32.582Z,1.28
2019-01-02T21:24:04.151Z,1.34
2019-01-02T21:26:35.920Z,1.35
2019-01-02T21:29:07.875Z,1.36
2019-01-02T21:31:39.371Z,1.41
2019-01-02T21:34:10.726Z,1.36
2019-01-02T21:36:42.191Z,1.29
2019-01-02T21:39:13.886Z,1.23
2019-01-02T21:41:45.303Z,1.28
2019-01-02T21:44:16.753Z,1.29
2019-01-02T21:46:48.780Z,1.27
2019-01-02T21:49:21.905Z,1.22
2019-01-02T21:51:53.416Z,1.11
2019-01-02T21:54:24.816Z,1.03
2019-01-02T21:56:56.289Z,0.95
2019-01-02T21:59:27.659Z,1.00
2019-01-02T22:01:59.116Z,1.07
2019-01-02T22:04:30.523Z,0.99
2019-01-02T22:07:01.962Z,0.92
2019-01-02T22:09:33.339Z,0.88
2019-01-02T22:12:04.811Z,0.88
2019-01-02T22:14:36.244Z,0.95
2019-01-02T22:17:07.681Z,0.97
2019-01-02T22:19:40.219Z,1.01
2019-01-02T22:22:11.608Z,0.94
2019-01-02T22:24:43.371Z,0.90
2019-01-02T22:27:14.808Z,0.84
2019-01-02T22:29:46.151Z,1.01
2019-01-02T22:32:17.675Z,1.06
2019-01-02T22:34:49.368Z,0.95
2019-01-02T22:37:20.928Z,0.84
2019-01-02T22:39:52.327Z,0.81
2019-01-02T22:42:23.685Z,0.70
2019-01-02T22:44:55.511Z,0.62
2019-01-02T22:47:28.009Z,0.58
2019-01-02T22:49:59.812Z,0.33
2019-01-02T22:52:31.249Z,0.19
2019-01-02T22:55:03.022Z,0.05
2019-01-02T22:57:34.455Z,-0.06
2019-01-02T23:00:11.944Z,-0.12
2019-01-02T23:03:01.432Z,-0.27
2019-01-02T23:05:49.579Z,-0.32
2019-01-02T23:08:39.982Z,-0.35
2019-01-02T23:11:38.492Z,-0.47
2019-01-02T23:14:38.346Z,-0.44
2019-01-02T23:17:27.346Z,-0.57
2019-01-02T23:20:21.830Z,-0.69
2019-01-02T23:23:14.559Z,-0.82
2019-01-02T23:26:11.079Z,-0.90
2019-01-02T23:32:01.321Z,-1.08
2019-01-02T23:34:50.560Z,-1.18
2019-01-02T23:37:53.266Z,-1.28
2019-01-02T23:40:43.635Z,-1.32
2019-01-02T23:43:40.154Z,-1.24
2019-01-02T23:46:30.528Z,-1.33
2019-01-02T23:49:26.533Z,-1.30
2019-01-02T23:52:25.980Z,-1.23
2019-01-02T23:55:15.415Z,-1.30
2019-01-02T23:58:04.326Z,-1.28
